x

Buoy I01 - Eastern Maine Shelf (44034) Wave Buoy

2:04am - Mon 22nd Dec 2014 All times are EST. -5 hours from GMT.

  • Sig Wave height 2.6ft
  • Peak Period 5s
  • Wind
    13mph, 18mph gusts
  • Sea Temp 48°f
  • Air Temp 38°f
  • Sea Pressure 1027.9mb
  • Buoy I01 - Eastern Maine Shelf
  • Buoy I01 - Eastern Maine Shelf

More Historic Weather Station data

Upgrade to MSW Pro to gain access to the past 30 days of data for over 8000 Wavebouys and Weather Stations around the globe.

Join Pro

Comparision Forecast

View Surf forecast
   
Mon 12/22 2:04am 2.5ft 5s 13 18 mph 1027.9mb 48f 38f
1:04am 2.5ft 5s 16 18 mph 1027.3mb 48f 37f
12:04am 2.5ft 3s 16 18 mph 1027.4mb 48f 38f
Sun 12/21 11:04pm 2.5ft 4s 13 16 mph 1027.4mb 48f 37f
10:04pm 2.5ft 5s 13 16 mph 1027.1mb 49f 38f
9:04pm 2.5ft 4s 13 16 mph 1026.6mb 49f 38f
8:04pm 2.5ft 4s 13 16 mph 1026.6mb 49f 38f
7:04pm 2.5ft 4s 13 16 mph 1026.7mb 49f 39f
6:04pm 3ft 4s 13 18 mph 1026.5mb 48f 38f
5:04pm 2.5ft 4s 13 16 mph 1026.3mb 48f 38f
4:04pm 2.5ft 4s 16 18 mph 1026mb 48f 38f
3:04pm 2.5ft 4s 16 18 mph 1025.8mb 48f 38f
2:04pm 2.5ft 4s 16 18 mph 1025.4mb 48f 37f
1:04pm 2.5ft 4s 16 20 mph 1025.2mb 48f 37f
12:04pm 3ft 4s 16 20 mph 1025.3mb 49f 37f
11:04am 3.5ft 4s 18 20 mph 1025.5mb 49f 37f
10:04am 3ft 5s 20 25 mph 1025.8mb 49f 37f
9:04am 3ft 4s 20 25 mph 1025.8mb 48f 36f
8:04am 3.5ft 4s 20 25 mph 1025.6mb 48f 36f
7:04am 3ft 5s 13 18 mph 1025.7mb 49f 35f
6:04am 3ft 4s 18 22 mph 1025.2mb 48f 36f
5:04am 3.5ft 4s 22 25 mph 1025mb 48f 36f
4:04am 3.5ft 5s 20 25 mph 1025.2mb 48f 36f
3:04am 3.5ft 5s 20 25 mph 1025.2mb 47f 35f
2:04am 3ft 5s 20 22 mph 1025.4mb 47f 34f
1:04am 3.5ft 5s 20 22 mph 1025mb 48f 33f
12:04am 3ft 5s 20 22 mph 1024.9mb 47f 33f
Sat 12/20 11:04pm 3ft 5s 18 22 mph 1025.4mb 47f 33f
10:04pm 2.5ft 5s 18 22 mph 1025.6mb 47f 33f
9:04pm 2.5ft 3s 18 20 mph 1025.5mb 47f 33f
8:04pm 2.5ft 4s 18 20 mph 1025.4mb 47f 33f
7:04pm 2ft 4s 16 20 mph 1025.6mb 47f 33f
6:04pm 2.5ft 4s 18 20 mph 1025.8mb 47f 32f
5:04pm 2.5ft 6s 13 16 mph 1025.8mb 47f 32f
4:04pm 3.5ft 4s 16 20 mph 1025.4mb 47f 31f
3:04pm 3ft 4s 20 25 mph 1024.6mb 47f 31f
2:04pm 3.5ft 4s 20 22 mph 1024.4mb 47f 31f
1:04pm 2.5ft 3s 18 22 mph 1024.5mb 47f 30f
12:04pm 3.5ft 5s 18 22 mph 1024.7mb 47f 29f
11:04am 3.5ft 4s 16 22 mph 1025.3mb 47f 29f
10:04am 4ft 5s 20 25 mph 1025.1mb 48f 29f
9:04am 4.5ft 4s 18 25 mph 1024.8mb 48f 29f
8:04am 4.5ft 5s 20 27 mph 1023.8mb 49f 29f
7:04am 4.5ft 5s 22 27 mph 1022.9mb 48f 30f
6:04am 3.5ft 5s 20 25 mph 1022.3mb 48f 31f
5:04am 3.5ft 4s 18 22 mph 1022mb 48f 30f
4:04am 3.5ft 5s 20 25 mph 1021mb 47f 31f
3:04am 3.5ft 5s 20 25 mph 1020.4mb 48f 31f
2:04am 3.5ft 4s 22 27 mph 1019.9mb 47f 31f
1:04am 3.5ft 4s 22 27 mph 1019mb 47f 31f
12:04am 3.5ft 4s 22 27 mph 1018.4mb 47f 32f
Fri 12/19 11:04pm 3.5ft 4s 20 25 mph 1017.7mb 47f 32f
10:04pm 3.5ft 4s 22 27 mph 1017mb 47f 33f
9:04pm 3.5ft 4s 22 29 mph 1016.3mb 47f 34f
8:04pm 3.5ft 4s 25 29 mph 1015.5mb 47f 35f
6:04pm 2.5ft 4s 18 22 mph 1014.2mb 48f 34f
5:04pm 2.5ft 4s 18 25 mph 1013.1mb 47f 34f
4:04pm 2.5ft 4s 20 25 mph 1012.2mb 47f 34f
3:04pm 3ft 4s 20 25 mph 1011.8mb 47f 34f
2:04pm 3ft 3s 18 25 mph 1011.1mb 47f 34f
1:04pm 3ft 4s 16 20 mph 1010.6mb 47f 33f
12:04pm 2.5ft 3s 18 22 mph 1010mb 47f 33f
11:04am 3ft 4s 20 25 mph 1010.1mb 47f 33f
10:04am 3.5ft 3s 22 27 mph 1010.1mb 48f 33f
9:04am 3ft 4s 20 25 mph 1010mb 48f 33f
8:04am 3ft 4s 20 27 mph 1009.2mb 48f 34f
7:04am 3.5ft 4s 20 27 mph 1008.3mb 48f 34f
6:04am 3ft 4s 18 25 mph 1007.7mb 48f 34f
5:04am 4ft 8s 18 25 mph 1007.1mb 47f 34f
4:04am 4ft 5s 20 27 mph 1006.7mb 47f 34f
3:04am 3.5ft 4s 20 27 mph 1006.7mb 47f 35f
2:04am 4.5ft 4s 22 27 mph 1006.5mb 47f 35f
1:04am 4.5ft 4s 22 29 mph 1006mb 48f 35f
12:04am 4.5ft 6s 25 29 mph 1005.4mb 48f 35f
Thu 12/18 11:04pm 4.5ft 4s 25 31 mph 1005.2mb 49f 35f
10:04pm 4.5ft 6s 22 31 mph 1004.9mb 48f 36f
9:04pm 4.5ft 6s 25 31 mph 1004.3mb 48f 36f
8:04pm 5ft 6s 27 31 mph 1004.3mb 48f 36f
7:04pm 5ft 6s 29 34 mph 1003.7mb 48f 36f
6:04pm 5ft 4s 27 34 mph 1003.4mb 48f 35f
5:04pm 5.5ft 6s 27 36 mph 1002.7mb 48f 36f
4:04pm 4ft 4s 27 34 mph 1002.2mb 48f 37f
3:04pm 4.5ft 4s 27 34 mph 1001.5mb 48f 38f
2:04pm 4ft 5s 25 29 mph 1001mb 48f 37f
1:04pm 3ft 3s 22 27 mph 1000.8mb 48f 37f
12:04pm 3.5ft 3s 22 27 mph 1000.6mb 48f 37f
11:04am 4.5ft 8s 20 25 mph 1000.7mb 48f 36f
10:04am 3.5ft 4s 22 27 mph 1000.9mb 49f 36f
9:04am 4ft 8s 20 25 mph 1000.5mb 49f 35f